Time;durP1;ratioP1;P1;durP2;ratioP2;P2;SDS_P1;SDS_P2;PMS_P1;PMS_P2;Temp;Humidity;BMP_temperature;BMP_pressure;BME280_temperature;BME280_humidity;BME280_pressure;Samples;Min_cycle;Max_cycle;Signal;HPM_P1;HPM_P2
2024/04/15 00:01:00;;;;;;;6.32;1.30;;;;;;;;;;5454385;26;20006;-90
2024/04/15 00:03:26;;;;;;;7.68;1.48;;;;;;;;;;5452785;26;19999;-90
2024/04/15 00:05:52;;;;;;;12.02;2.10;;;;;;;;;;5452797;26;20199;-90
2024/04/15 00:08:18;;;;;;;10.40;1.67;;;;;;;;;;5452314;26;20003;-89
2024/04/15 00:10:45;;;;;;;9.68;1.88;;;;;;;;;;5452512;26;19999;-89
2024/04/15 00:13:15;;;;;;;10.35;1.60;;;;;;;;;;5452566;26;20442;-90
2024/04/15 00:15:41;;;;;;;;;;;;;;;;;;5452621;26;19998;-88
2024/04/15 00:18:07;;;;;;;9.10;2.05;;;;;;;;;;5452233;26;20337;-88
2024/04/15 00:20:33;;;;;;;9.48;2.28;;;;;;;;;;5451904;26;20003;-88
2024/04/15 00:22:59;;;;;;;6.80;1.67;;;;;;;;;;5451801;26;20003;-89
2024/04/15 00:25:25;;;;;;;9.88;2.55;;;;;;;;;;5451729;26;20323;-88
2024/04/15 00:27:51;;;;;;;9.52;2.50;;;;;;;;;;5451712;26;20354;-87
2024/04/15 00:30:17;;;;;;;9.95;1.80;;;;;;;;;;5451916;26;19999;-90
2024/04/15 00:32:43;;;;;;;8.77;2.08;;;;;;;;;;5452150;26;19999;-90
2024/04/15 00:35:09;;;;;;;9.63;2.47;;;;;;;;;;5451525;26;20067;-89
2024/04/15 00:37:35;;;;;;;5.45;1.58;;;;;;;;;;5454139;26;20470;-90
2024/04/15 00:40:01;;;;;;;7.40;2.10;;;;;;;;;;5452225;26;20057;-88
2024/04/15 00:42:27;;;;;;;13.30;2.53;;;;;;;;;;5454009;26;20010;-88
2024/04/15 00:44:53;;;;;;;9.98;2.70;;;;;;;;;;5454042;26;20003;-88
2024/04/15 00:47:19;;;;;;;8.70;2.15;;;;;;;;;;5453836;26;20003;-87
2024/04/15 00:49:45;;;;;;;13.60;2.40;;;;;;;;;;5455427;26;20003;-91
2024/04/15 00:52:12;;;;;;;8.60;2.90;;;;;;;;;;5453721;26;20454;-89
2024/04/15 00:54:40;;;;;;;9.65;2.58;;;;;;;;;;5454404;26;20338;-89
2024/04/15 00:57:06;;;;;;;10.10;2.55;;;;;;;;;;5453345;26;19999;-89
2024/04/15 00:59:34;;;;;;;8.95;2.42;;;;;;;;;;5453117;26;20079;-90
2024/04/15 01:02:00;;;;;;;11.07;3.33;;;;;;;;;;5453106;26;20003;-87
2024/04/15 01:04:26;;;;;;;12.82;3.28;;;;;;;;;;5453490;26;20003;-91
2024/04/15 01:06:52;;;;;;;12.82;3.65;;;;;;;;;;5453607;26;20099;-90
2024/04/15 01:09:18;;;;;;;11.30;3.50;;;;;;;;;;5453835;26;20002;-92
2024/04/15 01:11:44;;;;;;;13.60;4.22;;;;;;;;;;5456149;26;20020;-93
2024/04/15 01:14:10;;;;;;;8.15;3.20;;;;;;;;;;5455458;26;20446;-91
2024/04/15 01:16:41;;;;;;;11.98;3.65;;;;;;;;;;5455274;26;20343;-91
2024/04/15 01:19:07;;;;;;;8.63;3.05;;;;;;;;;;5455048;26;20455;-91
2024/04/15 01:21:34;;;;;;;11.43;3.20;;;;;;;;;;5455775;26;20446;-91
2024/04/15 01:24:00;;;;;;;10.82;3.70;;;;;;;;;;5454828;26;20002;-89
2024/04/15 01:26:28;;;;;;;11.68;3.53;;;;;;;;;;5454243;26;20441;-89
2024/04/15 01:28:54;;;;;;;11.27;4.00;;;;;;;;;;5453296;26;20014;-90
2024/04/15 01:31:20;;;;;;;12.15;4.43;;;;;;;;;;5452059;26;20076;-89
2024/04/15 01:33:46;;;;;;;15.77;3.38;;;;;;;;;;5451977;26;20463;-87
2024/04/15 01:36:12;;;;;;;7.55;2.75;;;;;;;;;;5450338;26;20003;-88
2024/04/15 01:38:38;;;;;;;15.82;4.15;;;;;;;;;;5450509;26;19999;-87
2024/04/15 01:41:04;;;;;;;13.80;4.22;;;;;;;;;;5451085;26;19999;-86
2024/04/15 01:43:30;;;;;;;10.57;3.67;;;;;;;;;;5455758;26;20480;-87
2024/04/15 01:45:56;;;;;;;11.20;3.97;;;;;;;;;;5462396;26;20458;-88
2024/04/15 01:48:22;;;;;;;11.00;3.75;;;;;;;;;;5472507;26;19987;-88
2024/04/15 01:50:48;;;;;;;14.15;4.75;;;;;;;;;;5469679;26;20052;-88
2024/04/15 01:53:15;;;;;;;11.32;3.90;;;;;;;;;;5463404;26;20036;-86
2024/04/15 01:55:43;;;;;;;13.10;3.67;;;;;;;;;;5451469;26;20003;-86
2024/04/15 01:58:09;;;;;;;13.85;4.70;;;;;;;;;;5450198;26;20010;-87
2024/04/15 02:00:35;;;;;;;13.20;4.00;;;;;;;;;;5449924;26;19998;-87
2024/04/15 02:03:01;;;;;;;11.63;3.67;;;;;;;;;;5451508;26;20010;-88
2024/04/15 02:05:27;;;;;;;8.77;3.88;;;;;;;;;;5453111;26;20010;-89
2024/04/15 02:07:56;;;;;;;11.15;4.43;;;;;;;;;;5453399;26;20014;-87
2024/04/15 02:10:22;;;;;;;12.68;4.47;;;;;;;;;;5453208;26;20013;-87
2024/04/15 02:12:48;;;;;;;11.05;3.90;;;;;;;;;;5453177;26;20002;-88
2024/04/15 02:15:15;;;;;;;14.75;4.38;;;;;;;;;;5453140;26;20003;-86
2024/04/15 02:17:41;;;;;;;13.23;4.53;;;;;;;;;;5454796;26;20010;-87
2024/04/15 02:20:07;;;;;;;8.57;3.40;;;;;;;;;;5454758;26;20021;-87
2024/04/15 02:22:33;;;;;;;18.20;4.97;;;;;;;;;;5454740;26;20018;-87
2024/04/15 02:24:59;;;;;;;15.60;4.28;;;;;;;;;;5453081;26;19999;-88
2024/04/15 02:27:25;;;;;;;14.20;4.47;;;;;;;;;;5454421;26;20013;-87
2024/04/15 02:29:52;;;;;;;15.52;4.30;;;;;;;;;;5452610;26;19999;-87
2024/04/15 02:32:19;;;;;;;12.00;4.75;;;;;;;;;;5454184;26;20018;-88
2024/04/15 02:34:45;;;;;;;14.00;4.28;;;;;;;;;;5452760;26;20014;-87
2024/04/15 02:37:11;;;;;;;12.65;5.38;;;;;;;;;;5452647;26;19999;-87
2024/04/15 02:39:38;;;;;;;10.80;4.25;;;;;;;;;;5452801;26;19999;-88
2024/04/15 02:42:05;;;;;;;12.13;5.00;;;;;;;;;;5452577;26;20014;-87
2024/04/15 02:44:31;;;;;;;16.33;4.30;;;;;;;;;;5452307;26;20010;-86
2024/04/15 02:46:57;;;;;;;12.57;4.57;;;;;;;;;;5452512;26;20076;-88
2024/04/15 02:49:23;;;;;;;11.65;5.03;;;;;;;;;;5452211;26;19999;-87
2024/04/15 02:51:49;;;;;;;12.90;4.85;;;;;;;;;;5452351;26;20002;-86
2024/04/15 02:54:15;;;;;;;13.77;4.40;;;;;;;;;;5452513;26;20018;-87
2024/04/15 02:56:41;;;;;;;15.13;4.85;;;;;;;;;;5452247;26;20003;-85
2024/04/15 02:59:07;;;;;;;17.30;5.35;;;;;;;;;;5452270;26;19999;-85
2024/04/15 03:01:33;;;;;;;11.77;4.90;;;;;;;;;;5454369;26;20013;-85
2024/04/15 03:03:59;;;;;;;11.73;5.40;;;;;;;;;;5453165;26;20013;-91
2024/04/15 03:06:26;;;;;;;14.27;5.47;;;;;;;;;;5452307;26;20074;-86
2024/04/15 03:08:52;;;;;;;12.32;5.60;;;;;;;;;;5452585;26;19999;-87
2024/04/15 03:11:18;;;;;;;14.05;5.50;;;;;;;;;;5452053;26;19999;-87
2024/04/15 03:13:46;;;;;;;13.60;5.40;;;;;;;;;;5454403;26;20010;-89
2024/04/15 03:16:12;;;;;;;14.15;5.13;;;;;;;;;;5452623;26;20010;-87
2024/04/15 03:18:38;;;;;;;21.83;6.40;;;;;;;;;;5454056;26;20018;-86
2024/04/15 03:21:07;;;;;;;16.38;5.85;;;;;;;;;;5452859;26;20002;-90
2024/04/15 03:23:33;;;;;;;20.38;6.60;;;;;;;;;;5452408;26;19999;-88
2024/04/15 03:25:59;;;;;;;12.63;5.15;;;;;;;;;;5453877;26;20003;-89
2024/04/15 03:28:25;;;;;;;14.98;6.40;;;;;;;;;;5453813;26;20018;-86
2024/04/15 03:30:51;;;;;;;17.83;6.82;;;;;;;;;;5451886;26;20014;-87
2024/04/15 03:33:17;;;;;;;14.45;5.85;;;;;;;;;;5452070;26;20396;-87
2024/04/15 03:35:43;;;;;;;21.90;5.72;;;;;;;;;;5452062;26;20079;-87
2024/04/15 03:38:09;;;;;;;18.08;5.38;;;;;;;;;;5452249;26;20079;-88
2024/04/15 03:40:35;;;;;;;16.75;5.93;;;;;;;;;;5452203;26;20017;-88
2024/04/15 03:43:04;;;;;;;18.65;5.75;;;;;;;;;;5452684;26;20002;-89
2024/04/15 03:45:30;;;;;;;22.23;6.82;;;;;;;;;;5452287;26;20004;-89
2024/04/15 03:47:56;;;;;;;16.27;7.00;;;;;;;;;;5455498;26;20002;-88
2024/04/15 03:50:25;;;;;;;16.08;6.32;;;;;;;;;;5464121;26;20014;-88
2024/04/15 03:52:51;;;;;;;16.27;6.35;;;;;;;;;;5467047;26;20003;-88
2024/04/15 03:55:17;;;;;;;13.10;5.70;;;;;;;;;;5465967;26;20047;-87
2024/04/15 03:57:43;;;;;;;17.13;6.20;;;;;;;;;;5466803;26;20017;-86
2024/04/15 04:00:09;;;;;;;15.65;5.57;;;;;;;;;;5453022;26;20003;-88
2024/04/15 04:02:35;;;;;;;14.27;6.38;;;;;;;;;;5452104;26;20018;-87
2024/04/15 04:05:01;;;;;;;15.45;6.47;;;;;;;;;;5452797;26;20014;-86
2024/04/15 04:07:28;;;;;;;16.55;6.18;;;;;;;;;;5453536;26;20010;-87
2024/04/15 04:09:54;;;;;;;17.80;6.57;;;;;;;;;;5455701;26;19995;-86
2024/04/15 04:12:20;;;;;;;15.13;5.78;;;;;;;;;;5457430;26;20003;-86
2024/04/15 04:14:46;;;;;;;20.23;6.03;;;;;;;;;;5453507;26;20075;-87
2024/04/15 04:17:12;;;;;;;15.27;6.97;;;;;;;;;;5452161;26;20490;-86
2024/04/15 04:19:38;;;;;;;17.20;7.60;;;;;;;;;;5451811;26;20003;-88
2024/04/15 04:22:04;;;;;;;18.95;7.70;;;;;;;;;;5453408;26;20032;-86
2024/04/15 04:24:31;;;;;;;22.77;7.18;;;;;;;;;;5452956;26;20018;-87
2024/04/15 04:26:57;;;;;;;23.08;7.00;;;;;;;;;;5451169;26;20002;-87
2024/04/15 04:29:23;;;;;;;23.45;7.78;;;;;;;;;;5451550;26;20002;-88
2024/04/15 04:31:49;;;;;;;15.32;7.30;;;;;;;;;;5451297;26;20461;-87
2024/04/15 04:34:15;;;;;;;17.25;7.25;;;;;;;;;;5450941;26;20003;-87
2024/04/15 04:36:41;;;;;;;18.77;6.28;;;;;;;;;;5451261;26;19998;-84
2024/04/15 04:39:07;;;;;;;17.92;7.28;;;;;;;;;;5451104;26;20431;-83
2024/04/15 04:41:33;;;;;;;16.33;7.10;;;;;;;;;;5451576;26;20030;-84
2024/04/15 04:43:59;;;;;;;20.88;7.78;;;;;;;;;;5451424;26;19999;-83
2024/04/15 04:46:25;;;;;;;19.67;6.38;;;;;;;;;;5450154;26;20515;-83
2024/04/15 04:48:51;;;;;;;22.10;8.27;;;;;;;;;;5452458;26;20013;-85
2024/04/15 04:51:20;;;;;;;20.05;9.10;;;;;;;;;;5450335;26;20096;-85
2024/04/15 04:53:47;;;;;;;19.73;7.18;;;;;;;;;;5450569;26;20003;-84
2024/04/15 04:56:13;;;;;;;20.40;6.97;;;;;;;;;;5450883;26;20337;-84
2024/04/15 04:58:40;;;;;;;20.55;8.93;;;;;;;;;;5450623;26;20001;-85
2024/04/15 05:01:09;;;;;;;18.80;7.45;;;;;;;;;;5450868;26;20014;-85
2024/04/15 05:03:36;;;;;;;14.25;7.13;;;;;;;;;;5450728;26;20013;-88
2024/04/15 05:06:08;;;;;;;18.30;6.72;;;;;;;;;;5451578;26;20018;-88
2024/04/15 05:08:35;;;;;;;17.70;7.18;;;;;;;;;;5452693;26;20002;-90
2024/04/15 05:11:01;;;;;;;24.95;8.10;;;;;;;;;;5453183;26;19999;-90
2024/04/15 05:13:28;;;;;;;20.92;8.02;;;;;;;;;;5450649;26;19999;-89
2024/04/15 05:16:01;;;;;;;17.58;6.47;;;;;;;;;;5450999;26;19999;-89
2024/04/15 05:18:27;;;;;;;15.90;7.78;;;;;;;;;;5453164;26;20010;-89
2024/04/15 05:20:53;;;;;;;21.45;6.88;;;;;;;;;;5451155;26;20010;-88
2024/04/15 05:23:19;;;;;;;21.63;7.25;;;;;;;;;;5450554;26;20072;-88
2024/04/15 05:25:45;;;;;;;16.63;6.00;;;;;;;;;;5452829;26;20010;-88
2024/04/15 05:28:11;;;;;;;18.83;6.80;;;;;;;;;;5452700;26;20025;-88
2024/04/15 05:30:37;;;;;;;20.35;6.75;;;;;;;;;;5452422;26;20003;-87
2024/04/15 05:33:04;;;;;;;10.75;5.68;;;;;;;;;;5452416;26;19998;-87
2024/04/15 05:35:30;;;;;;;13.95;6.43;;;;;;;;;;5450691;26;20355;-86
2024/04/15 05:37:56;;;;;;;16.35;5.40;;;;;;;;;;5454004;26;20049;-87
2024/04/15 05:40:22;;;;;;;15.93;5.65;;;;;;;;;;5455138;26;20018;-85
2024/04/15 05:42:48;;;;;;;17.83;6.75;;;;;;;;;;5454190;26;20017;-87
2024/04/15 05:45:14;;;;;;;14.02;4.32;;;;;;;;;;5455485;26;20322;-84
2024/04/15 05:47:40;;;;;;;19.10;7.13;;;;;;;;;;5453085;26;20075;-85
2024/04/15 05:50:06;;;;;;;18.50;5.68;;;;;;;;;;5449234;26;20451;-84
2024/04/15 05:52:32;;;;;;;16.00;6.45;;;;;;;;;;5456352;26;19999;-87
2024/04/15 05:54:58;;;;;;;22.40;6.65;;;;;;;;;;5505831;26;19998;-85
2024/04/15 05:57:24;;;;;;;22.45;5.85;;;;;;;;;;5495377;26;19994;-82
2024/04/15 05:59:50;;;;;;;19.73;6.70;;;;;;;;;;5505543;26;19994;-83
2024/04/15 06:02:16;;;;;;;20.38;6.80;;;;;;;;;;5494141;26;20023;-86
2024/04/15 06:04:42;;;;;;;21.73;6.30;;;;;;;;;;5460236;26;19999;-85
2024/04/15 06:07:08;;;;;;;14.45;5.35;;;;;;;;;;5484073;26;19998;-88
2024/04/15 06:09:36;;;;;;;16.15;5.82;;;;;;;;;;5454705;26;19995;-85
2024/04/15 06:12:02;;;;;;;19.17;6.45;;;;;;;;;;5483705;26;20334;-84
2024/04/15 06:14:28;;;;;;;13.82;6.00;;;;;;;;;;5437033;26;20367;-84
2024/04/15 06:16:54;;;;;;;17.70;5.70;;;;;;;;;;5439706;26;19994;-84
2024/04/15 06:19:24;;;;;;;16.25;5.35;;;;;;;;;;5447384;26;20018;-87
2024/04/15 06:21:51;;;;;;;17.23;5.40;;;;;;;;;;5426949;26;20010;-83
2024/04/15 06:24:18;;;;;;;16.05;6.55;;;;;;;;;;5417257;26;20011;-83
2024/04/15 06:26:46;;;;;;;21.42;6.65;;;;;;;;;;5417215;26;20004;-84
2024/04/15 06:29:12;;;;;;;16.50;5.18;;;;;;;;;;5439951;26;19995;-82
2024/04/15 06:31:38;;;;;;;12.13;5.22;;;;;;;;;;5452841;26;20027;-83
2024/04/15 06:34:04;;;;;;;15.23;5.35;;;;;;;;;;5450869;26;20473;-83
2024/04/15 06:36:31;;;;;;;16.38;5.22;;;;;;;;;;5459614;26;20014;-85
2024/04/15 06:38:57;;;;;;;19.35;5.60;;;;;;;;;;5460742;26;20030;-84
2024/04/15 06:41:23;;;;;;;16.17;5.50;;;;;;;;;;5448975;26;20524;-84
2024/04/15 06:43:49;;;;;;;19.83;5.93;;;;;;;;;;5457414;26;19995;-85
2024/04/15 06:46:15;;;;;;;18.50;6.25;;;;;;;;;;5454069;26;20006;-84
2024/04/15 06:48:43;;;;;;;14.40;5.57;;;;;;;;;;5450964;26;19998;-84
2024/04/15 06:51:09;;;;;;;14.75;4.70;;;;;;;;;;5451748;26;19999;-82
2024/04/15 06:53:36;;;;;;;12.85;4.10;;;;;;;;;;5453145;26;19999;-82
2024/04/15 06:56:02;;;;;;;8.90;2.40;;;;;;;;;;5451937;26;19994;-83
2024/04/15 06:58:28;;;;;;;16.55;4.97;;;;;;;;;;5453502;26;20052;-82
2024/04/15 07:00:56;;;;;;;15.95;4.88;;;;;;;;;;5452076;26;20007;-81
2024/04/15 07:03:22;;;;;;;17.70;3.83;;;;;;;;;;5452081;26;20330;-82
2024/04/15 07:05:48;;;;;;;15.15;5.38;;;;;;;;;;5451873;26;20442;-82
2024/04/15 07:08:14;;;;;;;15.70;5.20;;;;;;;;;;5452020;26;20032;-82
2024/04/15 07:10:40;;;;;;;14.25;4.30;;;;;;;;;;5451626;26;19999;-82
2024/04/15 07:13:06;;;;;;;19.50;5.38;;;;;;;;;;5452139;26;19999;-82
2024/04/15 07:15:32;;;;;;;21.63;5.38;;;;;;;;;;5451388;26;20009;-82
2024/04/15 07:17:59;;;;;;;23.15;6.53;;;;;;;;;;5451908;26;19998;-83
2024/04/15 07:20:25;;;;;;;18.05;4.93;;;;;;;;;;5451513;26;20010;-82
2024/04/15 07:22:51;;;;;;;16.55;5.70;;;;;;;;;;5453610;26;20010;-81
2024/04/15 07:25:17;;;;;;;13.30;4.93;;;;;;;;;;5451783;26;19999;-81
2024/04/15 07:27:43;;;;;;;18.35;4.75;;;;;;;;;;5451670;26;19998;-82
2024/04/15 07:30:09;;;;;;;17.23;5.82;;;;;;;;;;5453695;26;20010;-82
2024/04/15 07:32:35;;;;;;;13.40;4.85;;;;;;;;;;5451631;26;20075;-82
2024/04/15 07:35:01;;;;;;;13.77;4.75;;;;;;;;;;5451659;26;20013;-81
2024/04/15 07:37:27;;;;;;;13.38;4.18;;;;;;;;;;5451370;26;20459;-81
2024/04/15 07:39:53;;;;;;;17.88;4.13;;;;;;;;;;5453345;26;20003;-81
2024/04/15 07:42:19;;;;;;;13.18;3.80;;;;;;;;;;5425647;26;20012;-83
2024/04/15 07:44:49;;;;;;;14.18;4.10;;;;;;;;;;5449393;26;20075;-82
2024/04/15 07:47:15;;;;;;;16.08;3.58;;;;;;;;;;5452884;26;20003;-81
2024/04/15 07:49:41;;;;;;;13.52;3.72;;;;;;;;;;5451267;26;20003;-82
2024/04/15 07:52:08;;;;;;;11.45;2.80;;;;;;;;;;5451400;26;20079;-82
2024/04/15 07:54:34;;;;;;;13.30;4.15;;;;;;;;;;5452980;26;20009;-81
2024/04/15 07:57:00;;;;;;;15.95;5.25;;;;;;;;;;5458082;26;20010;-80
2024/04/15 07:59:26;;;;;;;11.68;4.32;;;;;;;;;;5455513;26;19999;-81
2024/04/15 08:01:52;;;;;;;16.02;4.18;;;;;;;;;;5459454;26;20100;-79
2024/04/15 08:04:18;;;;;;;15.85;3.63;;;;;;;;;;5444031;26;20047;-82
2024/04/15 08:06:44;;;;;;;13.40;3.80;;;;;;;;;;5416037;26;20081;-82
2024/04/15 08:09:10;;;;;;;16.30;5.10;;;;;;;;;;5416745;26;20503;-81
2024/04/15 08:11:36;;;;;;;11.85;3.70;;;;;;;;;;5414542;26;20018;-82
2024/04/15 08:14:03;;;;;;;14.40;4.10;;;;;;;;;;5416927;26;20003;-80
2024/04/15 08:16:29;;;;;;;16.15;3.60;;;;;;;;;;5416030;26;20022;-82
2024/04/15 08:18:55;;;;;;;9.73;3.33;;;;;;;;;;5414559;26;20443;-80
2024/04/15 08:21:21;;;;;;;14.88;4.07;;;;;;;;;;5413122;26;19999;-82
2024/04/15 08:23:48;;;;;;;17.00;4.95;;;;;;;;;;5415059;26;19999;-81
2024/04/15 08:26:14;;;;;;;16.00;5.28;;;;;;;;;;5450687;26;20014;-82
2024/04/15 08:28:40;;;;;;;10.52;3.97;;;;;;;;;;5452171;26;20002;-82
2024/04/15 08:31:07;;;;;;;10.00;3.80;;;;;;;;;;5450957;26;20002;-81
2024/04/15 08:33:33;;;;;;;20.98;5.22;;;;;;;;;;5450424;26;20030;-81
2024/04/15 08:36:00;;;;;;;8.77;3.80;;;;;;;;;;5452015;26;20017;-82
2024/04/15 08:38:26;;;;;;;11.98;3.92;;;;;;;;;;5450384;26;20007;-80
2024/04/15 08:40:53;;;;;;;11.73;4.50;;;;;;;;;;5450475;26;20013;-80
2024/04/15 08:43:22;;;;;;;11.27;4.15;;;;;;;;;;5450542;26;20029;-80
2024/04/15 08:45:52;;;;;;;13.90;4.78;;;;;;;;;;5450233;26;20653;-82
2024/04/15 08:48:22;;;;;;;18.10;5.63;;;;;;;;;;5415159;26;20003;-80
2024/04/15 08:50:49;;;;;;;15.05;4.40;;;;;;;;;;5414188;26;20413;-81
2024/04/15 08:53:15;;;;;;;14.27;4.50;;;;;;;;;;5414506;26;20013;-81
2024/04/15 08:55:41;;;;;;;10.32;4.55;;;;;;;;;;5413905;26;20015;-81
2024/04/15 08:58:09;;;;;;;11.48;4.20;;;;;;;;;;5415964;26;19999;-80
2024/04/15 09:00:35;;;;;;;11.55;4.25;;;;;;;;;;5414276;26;20010;-82
2024/04/15 09:03:02;;;;;;;11.73;4.72;;;;;;;;;;5414530;26;19999;-82
2024/04/15 09:05:28;;;;;;;11.98;4.25;;;;;;;;;;5414185;26;20004;-82
2024/04/15 09:07:54;;;;;;;10.50;3.92;;;;;;;;;;5414457;26;20003;-83
2024/04/15 09:10:20;;;;;;;15.70;4.32;;;;;;;;;;5414438;26;20003;-83
2024/04/15 09:12:48;;;;;;;10.73;3.63;;;;;;;;;;5413667;26;20010;-83
2024/04/15 09:15:14;;;;;;;13.95;4.05;;;;;;;;;;5414341;26;20014;-83
2024/04/15 09:17:40;;;;;;;12.48;3.95;;;;;;;;;;5416067;26;20003;-83
2024/04/15 09:20:08;;;;;;;14.50;4.50;;;;;;;;;;5414234;26;20027;-83
2024/04/15 09:22:35;;;;;;;8.95;3.42;;;;;;;;;;5415882;26;20003;-83
2024/04/15 09:25:01;;;;;;;12.13;2.85;;;;;;;;;;5416052;26;20076;-84
2024/04/15 09:27:27;;;;;;;13.15;3.75;;;;;;;;;;5414228;26;20010;-83
2024/04/15 09:29:59;;;;;;;10.52;3.15;;;;;;;;;;5413551;26;20011;-84
2024/04/15 09:32:26;;;;;;;15.55;4.05;;;;;;;;;;5414272;26;20010;-84
2024/04/15 09:34:53;;;;;;;8.30;2.83;;;;;;;;;;5415598;26;20003;-82
2024/04/15 09:37:19;;;;;;;14.20;2.95;;;;;;;;;;5414081;26;20008;-83
2024/04/15 09:39:46;;;;;;;10.82;3.38;;;;;;;;;;5413595;26;20010;-83
2024/04/15 09:42:15;;;;;;;7.80;2.30;;;;;;;;;;5415703;26;20000;-83
2024/04/15 09:44:46;;;;;;;8.30;2.50;;;;;;;;;;5413636;26;20106;-83
2024/04/15 09:47:12;;;;;;;10.27;2.63;;;;;;;;;;5415716;26;20343;-83
2024/04/15 09:49:39;;;;;;;13.35;3.35;;;;;;;;;;5413897;26;20069;-83
2024/04/15 09:52:06;;;;;;;12.13;2.70;;;;;;;;;;5413925;26;20004;-83
2024/04/15 09:54:32;;;;;;;6.65;2.85;;;;;;;;;;5413658;26;19999;-83
2024/04/15 09:57:20;;;;;;;8.80;2.55;;;;;;;;;;5414798;26;20080;-84
2024/04/15 09:59:50;;;;;;;13.07;2.63;;;;;;;;;;5426188;26;19991;-82
2024/04/15 10:02:22;;;;;;;11.18;3.33;;;;;;;;;;5425561;26;20000;-84
2024/04/15 10:04:49;;;;;;;7.15;2.10;;;;;;;;;;5430798;26;19988;-82
2024/04/15 10:07:15;;;;;;;8.35;2.15;;;;;;;;;;5422676;26;20010;-84
2024/04/15 10:09:41;;;;;;;13.82;2.80;;;;;;;;;;5416446;26;20454;-84
2024/04/15 10:12:08;;;;;;;12.65;2.55;;;;;;;;;;5415202;26;20003;-84
2024/04/15 10:14:34;;;;;;;12.70;2.33;;;;;;;;;;5412957;26;19999;-84
2024/04/15 10:17:00;;;;;;;8.48;2.55;;;;;;;;;;5413229;26;20004;-83
2024/04/15 10:19:29;;;;;;;15.70;3.15;;;;;;;;;;5413163;26;20004;-84
2024/04/15 10:21:56;;;;;;;13.60;3.10;;;;;;;;;;5412916;26;20174;-84
2024/04/15 10:24:22;;;;;;;13.63;2.25;;;;;;;;;;5415391;26;20011;-84
2024/04/15 10:26:48;;;;;;;9.15;1.98;;;;;;;;;;5416775;26;20018;-84
2024/04/15 10:29:21;;;;;;;11.13;2.95;;;;;;;;;;5416775;26;20003;-84
2024/04/15 10:31:54;;;;;;;10.20;3.03;;;;;;;;;;5416462;26;20013;-85
2024/04/15 10:34:24;;;;;;;11.55;2.65;;;;;;;;;;5418626;26;20000;-85
2024/04/15 10:36:50;;;;;;;8.57;2.65;;;;;;;;;;5416389;26;20003;-84
2024/04/15 10:39:17;;;;;;;9.30;2.45;;;;;;;;;;5416608;26;20540;-84
2024/04/15 10:41:43;;;;;;;9.43;1.90;;;;;;;;;;5416309;26;20014;-83
2024/04/15 10:44:10;;;;;;;9.13;2.40;;;;;;;;;;5416681;26;20000;-85
2024/04/15 10:46:40;;;;;;;10.05;2.75;;;;;;;;;;5418257;26;20012;-86
2024/04/15 10:49:07;;;;;;;9.30;2.67;;;;;;;;;;5418794;26;20007;-83
2024/04/15 10:51:33;;;;;;;12.80;2.30;;;;;;;;;;5418613;26;20084;-83
2024/04/15 10:53:59;;;;;;;12.73;2.22;;;;;;;;;;5416927;26;20039;-85
2024/04/15 10:56:25;;;;;;;7.15;1.83;;;;;;;;;;5418563;26;20014;-82
2024/04/15 10:58:51;;;;;;;8.82;2.05;;;;;;;;;;5416263;26;20439;-82
2024/04/15 11:01:18;;;;;;;7.45;2.00;;;;;;;;;;5416552;26;20004;-82
2024/04/15 11:03:47;;;;;;;14.90;1.83;;;;;;;;;;5416639;26;20004;-83
2024/04/15 11:06:14;;;;;;;8.63;2.15;;;;;;;;;;5416644;26;20015;-83
2024/04/15 11:08:40;;;;;;;13.43;2.80;;;;;;;;;;5418130;26;20011;-82
2024/04/15 11:11:08;;;;;;;9.95;2.55;;;;;;;;;;5416482;26;20000;-82
2024/04/15 11:13:35;;;;;;;11.45;2.22;;;;;;;;;;5416139;26;20076;-82
2024/04/15 11:16:01;;;;;;;8.45;1.95;;;;;;;;;;5416129;26;20040;-82
2024/04/15 11:18:27;;;;;;;7.22;2.00;;;;;;;;;;5418054;26;20000;-81
2024/04/15 11:21:02;;;;;;;13.30;3.33;;;;;;;;;;5417846;26;20004;-81
2024/04/15 11:23:28;;;;;;;10.30;2.97;;;;;;;;;;5417765;26;20014;-82
2024/04/15 11:25:56;;;;;;;7.80;1.92;;;;;;;;;;5415333;26;20080;-80
2024/04/15 11:28:22;;;;;;;12.82;2.15;;;;;;;;;;5415682;26;20035;-82
2024/04/15 11:30:48;;;;;;;9.00;2.50;;;;;;;;;;5417246;26;20482;-82
2024/04/15 11:33:14;;;;;;;9.35;2.83;;;;;;;;;;5417345;26;20004;-79
2024/04/15 11:35:50;;;;;;;8.50;2.58;;;;;;;;;;5415007;26;20482;-81
2024/04/15 11:38:17;;;;;;;11.90;2.67;;;;;;;;;;5415733;26;20004;-83
2024/04/15 11:40:45;;;;;;;8.63;2.50;;;;;;;;;;5416987;26;20000;-82
2024/04/15 11:43:11;;;;;;;14.75;2.80;;;;;;;;;;5415394;26;20007;-81
2024/04/15 11:45:37;;;;;;;10.15;2.67;;;;;;;;;;5414709;26;19999;-80
2024/04/15 11:48:03;;;;;;;10.00;3.00;;;;;;;;;;5415835;26;20004;-82
2024/04/15 11:50:29;;;;;;;10.68;2.53;;;;;;;;;;5415451;26;20011;-81
2024/04/15 11:52:59;;;;;;;9.27;2.08;;;;;;;;;;5414981;26;20077;-81
2024/04/15 11:55:26;;;;;;;11.18;2.72;;;;;;;;;;5417244;26;20008;-80
2024/04/15 11:57:52;;;;;;;10.35;2.85;;;;;;;;;;5415186;26;20421;-80
2024/04/15 12:00:18;;;;;;;8.30;2.17;;;;;;;;;;5416340;26;20240;-81
2024/04/15 12:02:45;;;;;;;8.60;2.88;;;;;;;;;;5433523;26;20018;-81
2024/04/15 12:05:11;;;;;;;11.13;2.70;;;;;;;;;;5422832;26;20007;-81
2024/04/15 12:07:41;;;;;;;6.05;1.75;;;;;;;;;;5434570;26;20010;-79
2024/04/15 12:10:07;;;;;;;9.67;2.33;;;;;;;;;;5421665;26;20332;-81
2024/04/15 12:12:33;;;;;;;13.52;2.47;;;;;;;;;;5417194;26;20032;-82
2024/04/15 12:15:00;;;;;;;9.90;2.40;;;;;;;;;;5414888;26;20439;-81
2024/04/15 12:17:26;;;;;;;9.57;2.17;;;;;;;;;;5417145;26;20000;-79
2024/04/15 12:19:52;;;;;;;9.38;2.78;;;;;;;;;;5414881;26;20010;-81
2024/04/15 12:22:18;;;;;;;11.63;2.47;;;;;;;;;;5415225;26;20080;-80
2024/04/15 12:24:44;;;;;;;8.98;1.95;;;;;;;;;;5414828;26;20454;-80
2024/04/15 12:27:10;;;;;;;8.60;2.30;;;;;;;;;;5415041;26;19999;-80
2024/04/15 12:29:36;;;;;;;7.72;2.17;;;;;;;;;;5414895;26;19999;-80
2024/04/15 12:32:02;;;;;;;7.53;2.03;;;;;;;;;;5414681;26;20018;-81
2024/04/15 12:34:32;;;;;;;10.20;2.40;;;;;;;;;;5414708;26;20010;-82
2024/04/15 12:36:58;;;;;;;9.25;2.58;;;;;;;;;;5414604;26;20068;-82
2024/04/15 12:39:25;;;;;;;9.18;2.35;;;;;;;;;;5414636;26;20003;-80
2024/04/15 12:41:51;;;;;;;10.55;2.35;;;;;;;;;;5416206;26;20014;-79
2024/04/15 12:44:18;;;;;;;9.70;2.55;;;;;;;;;;5414668;26;19999;-82
2024/04/15 12:46:44;;;;;;;9.32;2.40;;;;;;;;;;5415250;26;20003;-82
2024/04/15 12:49:11;;;;;;;9.90;2.50;;;;;;;;;;5416905;26;20443;-81
2024/04/15 12:51:37;;;;;;;13.82;2.95;;;;;;;;;;5414913;26;20035;-80
2024/04/15 12:54:03;;;;;;;9.98;2.38;;;;;;;;;;5414623;26;20068;-80
2024/04/15 12:56:29;;;;;;;8.55;2.80;;;;;;;;;;5414766;26;20005;-81
2024/04/15 12:58:56;;;;;;;7.65;2.13;;;;;;;;;;5414683;26;20063;-80
2024/04/15 13:01:22;;;;;;;9.13;2.42;;;;;;;;;;5414219;26;19999;-80
2024/04/15 13:03:48;;;;;;;12.10;2.47;;;;;;;;;;5413963;26;20000;-80
2024/04/15 13:06:14;;;;;;;10.20;2.78;;;;;;;;;;5414080;26;20006;-81
2024/04/15 13:08:40;;;;;;;14.07;3.00;;;;;;;;;;5414158;26;20011;-80
2024/04/15 13:11:08;;;;;;;10.57;4.00;;;;;;;;;;5413903;26;20505;-80
2024/04/15 13:13:34;;;;;;;14.20;3.30;;;;;;;;;;5415811;26;19999;-80
2024/04/15 13:16:00;;;;;;;11.43;3.03;;;;;;;;;;5413924;26;20012;-81
2024/04/15 13:18:26;;;;;;;9.73;3.15;;;;;;;;;;5414236;26;20243;-82
2024/04/15 13:20:53;;;;;;;12.00;3.40;;;;;;;;;;5413724;26;20236;-81
2024/04/15 13:23:19;;;;;;;9.32;3.17;;;;;;;;;;5413942;26;20081;-83
2024/04/15 13:25:46;;;;;;;10.95;4.28;;;;;;;;;;5413422;26;20028;-83
2024/04/15 13:28:12;;;;;;;9.25;2.70;;;;;;;;;;5414203;26;20000;-87
2024/04/15 13:30:38;;;;;;;4.53;1.00;;;;;;;;;;5414174;26;20009;-85
2024/04/15 13:33:04;;;;;;;5.03;2.17;;;;;;;;;;5413606;26;19999;-82
2024/04/15 13:35:30;;;;;;;5.20;1.38;;;;;;;;;;5415390;26;20011;-80
2024/04/15 13:37:56;;;;;;;2.08;0.80;;;;;;;;;;5413480;26;20015;-80
2024/04/15 13:40:22;;;;;;;1.67;0.60;;;;;;;;;;5413610;26;20343;-81
2024/04/15 13:42:48;;;;;;;4.28;1.02;;;;;;;;;;5415471;26;20011;-81
2024/04/15 13:45:14;;;;;;;3.95;0.98;;;;;;;;;;5413755;26;20073;-80
2024/04/15 13:47:40;;;;;;;7.30;1.00;;;;;;;;;;5413730;26;19999;-81
2024/04/15 13:50:07;;;;;;;2.78;0.50;;;;;;;;;;5413676;26;19999;-80
2024/04/15 13:52:33;;;;;;;3.28;0.80;;;;;;;;;;5413733;26;20458;-80
2024/04/15 13:54:59;;;;;;;1.73;0.70;;;;;;;;;;5413275;26;20010;-81
2024/04/15 13:57:27;;;;;;;3.03;1.27;;;;;;;;;;5413771;26;20007;-80
2024/04/15 13:59:54;;;;;;;3.00;0.80;;;;;;;;;;5416133;26;20015;-79
2024/04/15 14:02:20;;;;;;;3.10;0.80;;;;;;;;;;5419382;26;20010;-80
2024/04/15 14:04:46;;;;;;;5.18;0.90;;;;;;;;;;5430684;26;20012;-78
2024/04/15 14:07:13;;;;;;;3.35;0.70;;;;;;;;;;5422466;26;20010;-80
2024/04/15 14:09:39;;;;;;;2.50;0.60;;;;;;;;;;5435853;26;19999;-78
2024/04/15 14:12:05;;;;;;;2.42;0.75;;;;;;;;;;5417997;26;19999;-80
2024/04/15 14:14:32;;;;;;;3.08;0.98;;;;;;;;;;5416776;26;20000;-80
2024/04/15 14:16:58;;;;;;;5.07;1.70;;;;;;;;;;5416761;26;20008;-80
2024/04/15 14:19:24;;;;;;;6.55;2.30;;;;;;;;;;5416763;26;20015;-79
2024/04/15 14:21:50;;;;;;;7.40;1.33;;;;;;;;;;5386979;26;20011;-80
2024/04/15 14:24:16;;;;;;;6.93;1.58;;;;;;;;;;5416533;26;19999;-79
2024/04/15 14:26:42;;;;;;;9.82;2.10;;;;;;;;;;5416342;26;20072;-80
2024/04/15 14:29:09;;;;;;;6.45;1.30;;;;;;;;;;5416028;26;20347;-80